createdAt,value
2018-10-18T00:01:08.237Z,30.30
2018-10-18T00:03:37.126Z,34.40
2018-10-18T00:06:05.991Z,35.90
2018-10-18T00:08:34.525Z,30.87
2018-10-18T00:11:03.288Z,29.60
2018-10-18T00:13:31.836Z,29.50
2018-10-18T00:16:00.404Z,27.53
2018-10-18T00:18:28.922Z,27.57
2018-10-18T00:20:57.464Z,29.20
2018-10-18T00:23:26.379Z,31.97
2018-10-18T00:25:54.978Z,38.27
2018-10-18T00:28:23.507Z,32.43
2018-10-18T00:30:52.035Z,33.70
2018-10-18T00:33:20.595Z,30.07
2018-10-18T00:35:49.123Z,32.87
2018-10-18T00:38:17.733Z,30.70
2018-10-18T00:40:46.208Z,26.50
2018-10-18T00:43:14.792Z,24.30
2018-10-18T00:45:43.301Z,23.60
2018-10-18T00:48:12.007Z,24.77
2018-10-18T00:50:40.522Z,24.47
2018-10-18T00:53:09.059Z,24.33
2018-10-18T00:55:37.611Z,28.67
2018-10-18T00:58:06.184Z,27.30
2018-10-18T01:00:34.711Z,26.80
2018-10-18T01:03:03.267Z,28.47
2018-10-18T01:05:31.812Z,27.93
2018-10-18T01:08:00.454Z,27.43
2018-10-18T01:10:28.937Z,26.77
2018-10-18T01:12:57.468Z,28.37
2018-10-18T01:15:26.009Z,28.63
2018-10-18T01:17:54.568Z,28.03
2018-10-18T01:20:23.156Z,28.30
2018-10-18T01:22:51.679Z,28.33
2018-10-18T01:25:20.384Z,28.20
2018-10-18T01:27:49.143Z,26.20
2018-10-18T01:30:17.660Z,26.47
2018-10-18T01:32:46.216Z,25.50
2018-10-18T01:35:14.764Z,25.93
2018-10-18T01:37:43.313Z,25.63
2018-10-18T01:40:11.853Z,26.67
2018-10-18T01:42:40.540Z,27.17
2018-10-18T01:45:09.068Z,24.60
2018-10-18T01:47:37.686Z,25.87
2018-10-18T01:50:07.153Z,26.23
2018-10-18T01:52:35.706Z,25.60
2018-10-18T01:55:05.029Z,25.97
2018-10-18T01:57:33.584Z,26.93
2018-10-18T02:00:02.241Z,27.37
2018-10-18T02:02:30.987Z,24.80
2018-10-18T02:04:59.537Z,25.37
2018-10-18T02:07:28.062Z,26.43
2018-10-18T02:09:56.681Z,25.53
2018-10-18T02:12:25.198Z,30.77
2018-10-18T02:14:53.716Z,27.67
2018-10-18T02:17:22.273Z,27.90
2018-10-18T02:19:50.807Z,33.10
2018-10-18T02:22:19.352Z,32.37
2018-10-18T02:24:47.924Z,30.97
2018-10-18T02:27:16.446Z,45.77
2018-10-18T02:29:44.997Z,33.97
2018-10-18T02:32:13.516Z,29.63
2018-10-18T02:34:42.080Z,29.43
2018-10-18T02:37:10.609Z,31.00
2018-10-18T02:39:39.208Z,40.90
2018-10-18T02:42:07.788Z,27.70
2018-10-18T02:44:36.298Z,28.00
2018-10-18T02:47:04.933Z,26.47
2018-10-18T02:49:33.460Z,26.17
2018-10-18T02:52:01.977Z,24.73
2018-10-18T02:54:30.564Z,23.93
2018-10-18T02:56:59.057Z,24.83
2018-10-18T02:59:27.604Z,24.63
2018-10-18T03:01:56.125Z,23.87
2018-10-18T03:04:25.147Z,30.60
2018-10-18T03:06:53.661Z,27.47
2018-10-18T03:09:22.191Z,24.67
2018-10-18T03:11:50.711Z,26.43
2018-10-18T03:14:19.233Z,26.90
2018-10-18T03:16:47.778Z,24.87
2018-10-18T03:19:16.326Z,27.23
2018-10-18T03:21:44.873Z,22.70
2018-10-18T03:24:13.449Z,24.60
2018-10-18T03:26:41.933Z,25.07
2018-10-18T03:29:10.491Z,23.67
2018-10-18T03:31:39.004Z,25.87
2018-10-18T03:34:07.851Z,24.33
2018-10-18T03:36:36.409Z,22.53
2018-10-18T03:39:08.173Z,20.73
2018-10-18T03:41:36.786Z,21.57
2018-10-18T03:44:05.898Z,22.87
2018-10-18T03:46:34.661Z,22.23
2018-10-18T03:49:04.241Z,19.70
2018-10-18T03:51:32.744Z,20.70
2018-10-18T03:54:01.923Z,21.03
2018-10-18T03:56:30.560Z,24.60
2018-10-18T03:58:59.103Z,25.23
2018-10-18T04:01:28.191Z,28.80
2018-10-18T04:03:56.700Z,27.23
2018-10-18T04:06:25.329Z,49.90
2018-10-18T04:08:53.856Z,35.37
2018-10-18T04:11:22.456Z,58.00
2018-10-18T04:13:50.951Z,28.00
2018-10-18T04:16:19.501Z,34.73
2018-10-18T04:18:48.031Z,39.17
2018-10-18T04:21:16.598Z,47.20
2018-10-18T04:23:45.241Z,45.57
2018-10-18T04:26:13.779Z,41.77
2018-10-18T04:28:42.389Z,50.27
2018-10-18T04:31:10.865Z,42.70
2018-10-18T04:33:39.368Z,39.70
2018-10-18T04:36:08.011Z,23.73
2018-10-18T04:38:36.469Z,23.37
2018-10-18T04:41:05.201Z,22.17
2018-10-18T04:43:33.704Z,23.07
2018-10-18T04:46:02.228Z,23.60
2018-10-18T04:48:30.882Z,28.77
2018-10-18T04:50:59.659Z,24.53
2018-10-18T04:53:28.337Z,24.27
2018-10-18T04:55:56.847Z,23.80
2018-10-18T04:58:25.421Z,29.67
2018-10-18T05:00:54.692Z,29.27
2018-10-18T05:03:23.213Z,35.40
2018-10-18T05:05:55.950Z,35.70
2018-10-18T05:08:25.534Z,58.10
2018-10-18T05:10:54.363Z,47.23
2018-10-18T05:13:23.129Z,55.07
2018-10-18T05:15:51.730Z,45.60
2018-10-18T05:18:21.019Z,41.30
2018-10-18T05:20:49.641Z,55.07
2018-10-18T05:23:18.156Z,77.73
2018-10-18T05:25:47.481Z,86.17
2018-10-18T05:28:15.992Z,68.33
2018-10-18T05:30:44.539Z,76.27
2018-10-18T05:33:13.081Z,67.40
2018-10-18T05:35:41.617Z,56.50
2018-10-18T05:38:10.231Z,62.60
2018-10-18T05:40:39.026Z,56.47
2018-10-18T05:43:07.711Z,52.47
2018-10-18T05:45:36.159Z,58.57
2018-10-18T05:48:05.005Z,53.43
2018-10-18T05:50:33.582Z,60.57
2018-10-18T05:53:02.266Z,75.97
2018-10-18T05:55:30.761Z,75.53
2018-10-18T05:57:59.339Z,78.90
2018-10-18T06:00:27.859Z,113.63
2018-10-18T06:02:56.374Z,135.00
2018-10-18T06:05:24.924Z,116.77
2018-10-18T06:07:53.466Z,65.87
2018-10-18T06:10:33.277Z,52.27
2018-10-18T06:13:01.743Z,55.07
2018-10-18T06:15:30.264Z,52.67
2018-10-18T06:17:58.775Z,47.23
2018-10-18T06:20:27.324Z,49.37
2018-10-18T06:22:55.981Z,55.03
2018-10-18T06:25:24.379Z,51.63
2018-10-18T06:27:52.901Z,56.07
2018-10-18T06:30:21.431Z,50.93
2018-10-18T06:32:49.931Z,44.97
2018-10-18T06:35:18.512Z,46.83
2018-10-18T06:37:47.020Z,50.53
2018-10-18T06:40:16.962Z,55.20
2018-10-18T06:42:45.500Z,47.60
2018-10-18T06:45:18.432Z,46.70
2018-10-18T06:47:47.315Z,48.17
2018-10-18T06:50:19.937Z,48.83
2018-10-18T06:52:48.466Z,45.20
2018-10-18T06:55:17.128Z,42.97
2018-10-18T06:57:45.978Z,38.47
2018-10-18T07:00:20.653Z,41.07
2018-10-18T07:02:49.671Z,35.67
2018-10-18T07:05:18.498Z,38.13
2018-10-18T07:07:47.004Z,35.93
2018-10-18T07:10:15.551Z,37.70
2018-10-18T07:12:44.104Z,34.27
2018-10-18T07:15:13.855Z,34.07
2018-10-18T07:17:43.119Z,33.23
2018-10-18T07:20:12.586Z,33.17
2018-10-18T07:22:41.647Z,32.53
2018-10-18T07:25:12.646Z,34.60
2018-10-18T07:27:42.004Z,41.07
2018-10-18T07:30:12.457Z,38.73
2018-10-18T07:32:41.428Z,40.00
2018-10-18T07:35:11.384Z,40.10
2018-10-18T07:37:39.847Z,41.17
2018-10-18T07:40:12.181Z,40.57
2018-10-18T07:42:40.786Z,43.73
2018-10-18T07:45:10.463Z,40.80
2018-10-18T07:47:39.110Z,37.33
2018-10-18T07:50:07.981Z,36.80
2018-10-18T07:52:37.081Z,37.67
2018-10-18T07:55:06.747Z,36.93
2018-10-18T07:57:35.496Z,36.97
2018-10-18T08:00:05.174Z,37.30
2018-10-18T08:02:33.672Z,35.03
2018-10-18T08:05:02.228Z,35.50
2018-10-18T08:07:30.747Z,36.33
2018-10-18T08:09:59.653Z,35.63
2018-10-18T08:12:28.303Z,35.43
2018-10-18T08:14:56.751Z,35.30
2018-10-18T08:17:25.362Z,34.53
2018-10-18T08:19:53.858Z,36.27
2018-10-18T08:22:22.563Z,35.80
2018-10-18T08:24:51.127Z,33.20
2018-10-18T08:27:19.716Z,33.60
2018-10-18T08:29:48.993Z,34.87
2018-10-18T08:32:17.615Z,34.60
2018-10-18T08:34:46.179Z,34.40
2018-10-18T08:37:14.944Z,34.93
2018-10-18T08:39:45.092Z,37.37
2018-10-18T08:42:13.683Z,37.20
2018-10-18T08:44:42.228Z,34.73
2018-10-18T08:47:10.787Z,36.83
2018-10-18T08:49:39.363Z,35.20
2018-10-18T08:52:07.940Z,35.87
2018-10-18T08:54:36.497Z,34.87
2018-10-18T08:57:05.053Z,35.77
2018-10-18T08:59:33.563Z,34.93
2018-10-18T09:02:02.133Z,35.57
2018-10-18T09:04:30.641Z,35.90
2018-10-18T09:06:59.185Z,37.43
2018-10-18T09:09:27.959Z,36.23
2018-10-18T09:11:56.508Z,37.70
2018-10-18T09:14:25.031Z,36.10
2018-10-18T09:16:53.887Z,39.97
2018-10-18T09:19:22.396Z,41.10
2018-10-18T09:21:50.909Z,41.57
2018-10-18T09:24:19.464Z,36.30
2018-10-18T09:26:48.009Z,40.13
2018-10-18T09:29:16.553Z,36.63
2018-10-18T09:31:45.113Z,35.57
2018-10-18T09:34:13.651Z,35.97
2018-10-18T09:36:42.185Z,36.77
2018-10-18T09:39:10.730Z,34.70
2018-10-18T09:41:39.258Z,38.13
2018-10-18T09:44:07.802Z,36.90
2018-10-18T09:46:37.111Z,38.33
2018-10-18T09:49:06.009Z,34.73
2018-10-18T09:51:34.604Z,34.50
2018-10-18T09:54:03.676Z,34.17
2018-10-18T09:56:33.120Z,36.17
2018-10-18T09:59:02.034Z,33.27
2018-10-18T10:02:39.532Z,34.43
2018-10-18T10:05:08.074Z,33.00
2018-10-18T10:07:36.619Z,34.77
2018-10-18T10:10:05.451Z,34.87
2018-10-18T10:12:33.981Z,32.97
2018-10-18T10:15:02.546Z,36.03
2018-10-18T10:17:31.271Z,35.50
2018-10-18T10:19:59.809Z,31.13
2018-10-18T10:22:28.352Z,29.13
2018-10-18T10:24:56.912Z,32.37
2018-10-18T10:27:25.596Z,29.90
2018-10-18T10:29:54.154Z,30.37
2018-10-18T10:32:22.693Z,24.93
2018-10-18T10:34:51.217Z,28.33
2018-10-18T10:37:19.777Z,23.67
2018-10-18T10:39:48.289Z,24.60
2018-10-18T10:42:17.170Z,25.87
2018-10-18T10:44:45.668Z,24.57
2018-10-18T10:47:14.200Z,26.47
2018-10-18T10:49:42.812Z,21.50
2018-10-18T10:52:11.421Z,26.33
2018-10-18T10:54:40.282Z,23.23
2018-10-18T10:57:08.900Z,20.17
2018-10-18T10:59:37.421Z,19.10
2018-10-18T11:02:06.533Z,23.50
2018-10-18T11:04:35.121Z,22.63
2018-10-18T11:07:03.670Z,22.17
2018-10-18T11:09:32.295Z,20.48
2018-10-18T11:12:00.913Z,19.27
2018-10-18T11:14:29.364Z,18.30
2018-10-18T11:16:57.978Z,16.45
2018-10-18T11:19:26.535Z,20.48
2018-10-18T11:21:55.058Z,20.27
2018-10-18T11:24:23.664Z,18.35
2018-10-18T11:26:52.240Z,18.25
2018-10-18T11:29:20.806Z,19.07
2018-10-18T11:31:49.349Z,17.85
2018-10-18T11:34:17.948Z,16.95
2018-10-18T11:36:46.468Z,17.20
2018-10-18T11:39:15.035Z,17.95
2018-10-18T11:41:43.563Z,16.15
2018-10-18T11:44:12.175Z,17.75
2018-10-18T11:46:40.717Z,16.27
2018-10-18T11:49:09.272Z,14.83
2018-10-18T11:51:37.901Z,14.75
2018-10-18T11:54:06.496Z,15.85
2018-10-18T11:56:34.990Z,15.68
2018-10-18T11:59:03.648Z,15.80
2018-10-18T12:01:32.260Z,17.65
2018-10-18T12:04:00.813Z,15.93
2018-10-18T12:06:29.400Z,14.90
2018-10-18T12:08:57.929Z,19.25
2018-10-18T12:11:26.508Z,14.23
2018-10-18T12:13:55.104Z,13.85
2018-10-18T12:16:23.681Z,13.53
2018-10-18T12:18:52.289Z,13.48
2018-10-18T12:21:20.820Z,14.95
2018-10-18T12:23:49.382Z,12.88
2018-10-18T12:26:17.985Z,14.75
2018-10-18T12:28:46.529Z,12.40
2018-10-18T12:31:15.071Z,15.32
2018-10-18T12:33:43.621Z,14.23
2018-10-18T12:36:12.144Z,13.65
2018-10-18T12:38:40.697Z,13.25
2018-10-18T12:41:09.430Z,12.85
2018-10-18T12:43:37.810Z,13.83
2018-10-18T12:46:06.380Z,14.13
2018-10-18T12:48:34.971Z,12.07
2018-10-18T12:51:03.487Z,13.05
2018-10-18T12:53:32.030Z,13.10
2018-10-18T12:56:00.642Z,13.30
2018-10-18T12:58:29.172Z,13.28
2018-10-18T13:00:57.744Z,14.10
2018-10-18T13:03:26.265Z,13.18
2018-10-18T13:05:54.851Z,12.20
2018-10-18T13:08:23.381Z,13.10
2018-10-18T13:10:51.959Z,13.15
2018-10-18T13:13:20.492Z,17.15
2018-10-18T13:15:49.282Z,12.53
2018-10-18T13:18:17.898Z,14.38
2018-10-18T13:20:46.581Z,12.13
2018-10-18T13:23:15.101Z,15.58
2018-10-18T13:25:43.738Z,15.03
2018-10-18T13:28:12.262Z,13.78
2018-10-18T13:30:40.806Z,14.68
2018-10-18T13:33:09.399Z,13.62
2018-10-18T13:35:38.077Z,13.00
2018-10-18T13:38:06.813Z,13.45
2018-10-18T13:40:35.323Z,13.32
2018-10-18T13:43:04.064Z,14.73
2018-10-18T13:45:32.624Z,14.50
2018-10-18T13:48:01.187Z,14.10
2018-10-18T13:50:29.724Z,13.68
2018-10-18T13:52:58.308Z,14.47
2018-10-18T13:55:27.065Z,14.03
2018-10-18T13:57:55.808Z,14.83
2018-10-18T14:00:31.380Z,15.15
2018-10-18T14:02:59.926Z,12.05
2018-10-18T14:05:28.908Z,12.68
2018-10-18T14:07:57.762Z,12.23
2018-10-18T14:10:26.347Z,12.88
2018-10-18T14:12:55.110Z,13.30
2018-10-18T14:15:23.678Z,13.08
2018-10-18T14:17:52.328Z,12.90
2018-10-18T14:20:20.890Z,13.35
2018-10-18T14:22:49.381Z,12.53
2018-10-18T14:25:17.984Z,12.30
2018-10-18T14:27:46.572Z,13.72
2018-10-18T14:30:15.269Z,13.58
2018-10-18T14:32:46.936Z,17.20
2018-10-18T14:35:15.513Z,16.00
2018-10-18T14:37:44.020Z,11.88
2018-10-18T14:40:13.089Z,14.78
2018-10-18T14:42:41.755Z,12.88
2018-10-18T14:45:10.606Z,15.13
2018-10-18T14:47:39.311Z,14.35
2018-10-18T14:50:09.945Z,14.20
2018-10-18T14:52:38.455Z,14.33
2018-10-18T14:55:07.177Z,19.00
2018-10-18T14:57:35.808Z,15.98
2018-10-18T15:00:04.654Z,14.00
2018-10-18T15:02:33.200Z,13.98
2018-10-18T15:05:02.435Z,15.05
2018-10-18T15:07:30.962Z,15.93
2018-10-18T15:09:59.622Z,16.52
2018-10-18T15:12:28.246Z,13.00
2018-10-18T15:14:56.751Z,12.93
2018-10-18T15:17:25.315Z,13.75
2018-10-18T15:19:53.859Z,12.93
2018-10-18T15:22:22.415Z,13.83
2018-10-18T15:24:50.953Z,14.28
2018-10-18T15:27:19.552Z,14.35
2018-10-18T15:29:48.066Z,14.33
2018-10-18T15:32:16.657Z,14.95
2018-10-18T15:34:45.178Z,13.65
2018-10-18T15:37:13.755Z,14.70
2018-10-18T15:39:42.315Z,14.07
2018-10-18T15:42:10.865Z,14.87
2018-10-18T15:44:39.382Z,15.80
2018-10-18T15:47:08.014Z,13.80
2018-10-18T15:49:36.823Z,17.47
2018-10-18T15:52:05.560Z,16.43
2018-10-18T15:54:34.084Z,20.60
2018-10-18T15:57:02.691Z,18.50
2018-10-18T15:59:31.203Z,18.63
2018-10-18T16:01:59.764Z,18.53
2018-10-18T16:04:28.276Z,18.27
2018-10-18T16:06:56.814Z,17.17
2018-10-18T16:09:25.320Z,23.70
2018-10-18T16:11:53.880Z,18.57
2018-10-18T16:14:22.452Z,17.00
2018-10-18T16:16:51.020Z,21.30
2018-10-18T16:19:19.560Z,18.27
2018-10-18T16:21:48.135Z,23.50
2018-10-18T16:24:16.719Z,20.00
2018-10-18T16:26:45.228Z,18.47
2018-10-18T16:29:13.769Z,23.07
2018-10-18T16:31:42.315Z,18.77
2018-10-18T16:34:10.830Z,20.50
2018-10-18T16:36:39.360Z,19.63
2018-10-18T16:39:10.428Z,23.83
2018-10-18T16:41:39.112Z,21.63
2018-10-18T16:44:07.977Z,22.67
2018-10-18T16:46:36.535Z,21.33
2018-10-18T16:49:05.716Z,23.73
2018-10-18T16:51:34.292Z,21.93
2018-10-18T16:54:03.114Z,21.07
2018-10-18T16:56:31.684Z,22.40
2018-10-18T16:59:00.220Z,22.23
2018-10-18T17:01:28.751Z,22.57
2018-10-18T17:03:57.322Z,22.47
2018-10-18T17:06:25.988Z,23.00
2018-10-18T17:08:54.492Z,22.80
2018-10-18T17:11:23.107Z,21.50
2018-10-18T17:13:51.664Z,21.40
2018-10-18T17:16:20.327Z,23.00
2018-10-18T17:18:48.768Z,23.57
2018-10-18T17:21:17.457Z,22.27
2018-10-18T17:23:45.943Z,21.53
2018-10-18T17:26:14.607Z,26.77
2018-10-18T17:28:43.079Z,21.43
2018-10-18T17:31:11.610Z,22.90
2018-10-18T17:33:40.185Z,20.50
2018-10-18T17:36:08.777Z,22.47
2018-10-18T17:38:37.304Z,24.43
2018-10-18T17:41:06.830Z,23.43
2018-10-18T17:43:35.387Z,23.80
2018-10-18T17:46:03.956Z,26.43
2018-10-18T17:48:32.488Z,24.77
2018-10-18T17:51:01.027Z,25.10
2018-10-18T17:53:29.620Z,28.87
2018-10-18T17:55:58.146Z,26.73
2018-10-18T17:58:26.659Z,28.87
2018-10-18T18:00:55.391Z,26.93
2018-10-18T18:03:23.922Z,24.90
2018-10-18T18:05:52.478Z,27.40
2018-10-18T18:08:21.033Z,26.30
2018-10-18T18:10:49.534Z,27.70
2018-10-18T18:13:18.066Z,26.17
2018-10-18T18:15:46.570Z,27.67
2018-10-18T18:18:15.177Z,30.10
2018-10-18T18:20:43.697Z,26.40
2018-10-18T18:23:12.209Z,30.00
2018-10-18T18:25:40.700Z,31.93
2018-10-18T18:28:09.340Z,30.20
2018-10-18T18:30:37.860Z,27.57
2018-10-18T18:33:06.382Z,30.53
2018-10-18T18:35:34.918Z,31.70
2018-10-18T18:38:03.713Z,33.83
2018-10-18T18:40:32.252Z,34.70
2018-10-18T18:43:00.942Z,34.20
2018-10-18T18:45:33.485Z,34.97
2018-10-18T18:48:03.482Z,34.80
2018-10-18T18:50:32.037Z,35.60
2018-10-18T18:53:00.562Z,38.07
2018-10-18T18:55:29.827Z,37.27
2018-10-18T18:57:58.420Z,40.00
2018-10-18T19:00:27.150Z,38.23
2018-10-18T19:02:55.638Z,39.63
2018-10-18T19:05:24.988Z,38.37
2018-10-18T19:07:53.471Z,44.10
2018-10-18T19:10:21.999Z,39.43
2018-10-18T19:12:50.501Z,38.43
2018-10-18T19:15:19.024Z,38.73
2018-10-18T19:17:47.555Z,40.33
2018-10-18T19:20:16.091Z,42.77
2018-10-18T19:22:44.649Z,41.83
2018-10-18T19:25:13.123Z,41.50
2018-10-18T19:27:41.613Z,41.37
2018-10-18T19:30:11.534Z,40.23
2018-10-18T19:32:40.383Z,43.37
2018-10-18T19:35:08.907Z,44.03
2018-10-18T19:37:37.388Z,40.57
2018-10-18T19:40:07.007Z,38.40
2018-10-18T19:42:35.654Z,40.33
2018-10-18T19:45:04.525Z,41.50
2018-10-18T19:47:33.032Z,45.00
2018-10-18T19:50:01.709Z,35.60
2018-10-18T19:52:30.340Z,42.77
2018-10-18T19:54:58.767Z,39.50
2018-10-18T19:57:27.369Z,43.07
2018-10-18T19:59:55.903Z,43.67
2018-10-18T20:02:24.539Z,43.30
2018-10-18T20:04:53.062Z,41.40
2018-10-18T20:07:21.641Z,44.23
2018-10-18T20:09:50.167Z,42.60
2018-10-18T20:12:18.671Z,48.77
2018-10-18T20:14:47.200Z,45.13
2018-10-18T20:17:16.559Z,49.17
2018-10-18T20:19:45.401Z,46.90
2018-10-18T20:22:14.203Z,52.97
2018-10-18T20:24:42.833Z,48.03
2018-10-18T20:27:12.611Z,48.70
2018-10-18T20:29:41.151Z,49.20
2018-10-18T20:32:09.715Z,50.40
2018-10-18T20:34:38.598Z,52.30
2018-10-18T20:37:07.156Z,47.33
2018-10-18T20:39:35.804Z,50.23
2018-10-18T20:42:04.355Z,55.27
2018-10-18T20:44:32.897Z,53.47
2018-10-18T20:47:01.559Z,51.43
2018-10-18T20:49:31.368Z,52.17
2018-10-18T20:52:00.798Z,52.30
2018-10-18T20:54:29.351Z,54.27
2018-10-18T20:56:57.896Z,50.83
2018-10-18T20:59:26.414Z,51.33
2018-10-18T21:01:54.952Z,52.63
2018-10-18T21:04:23.457Z,56.03
2018-10-18T21:06:51.986Z,55.33
2018-10-18T21:09:20.499Z,58.83
2018-10-18T21:11:49.366Z,50.73
2018-10-18T21:14:18.421Z,56.60
2018-10-18T21:16:46.969Z,50.77
2018-10-18T21:19:15.475Z,50.90
2018-10-18T21:21:44.029Z,55.57
2018-10-18T21:24:12.525Z,54.83
2018-10-18T21:26:41.044Z,58.67
2018-10-18T21:29:09.634Z,53.47
2018-10-18T21:31:38.131Z,58.03
2018-10-18T21:34:06.666Z,57.27
2018-10-18T21:36:35.218Z,52.53
2018-10-18T21:39:05.375Z,50.63
2018-10-18T21:41:33.853Z,54.60
2018-10-18T21:44:02.519Z,54.87
2018-10-18T21:46:31.055Z,57.17
2018-10-18T21:48:59.701Z,58.17
2018-10-18T21:51:28.180Z,58.33
2018-10-18T21:53:56.728Z,59.83
2018-10-18T21:56:25.294Z,57.57
2018-10-18T21:58:53.825Z,58.57
2018-10-18T22:01:22.509Z,56.50
2018-10-18T22:03:51.003Z,58.33
2018-10-18T22:06:19.530Z,59.27
2018-10-18T22:08:48.056Z,56.93
2018-10-18T22:11:16.549Z,55.63
2018-10-18T22:13:45.051Z,62.97
2018-10-18T22:16:13.583Z,61.23
2018-10-18T22:18:42.091Z,58.87
2018-10-18T22:21:10.686Z,58.07
2018-10-18T22:23:39.195Z,54.80
2018-10-18T22:26:07.736Z,62.60
2018-10-18T22:28:36.271Z,55.63
2018-10-18T22:31:05.419Z,57.80
2018-10-18T22:33:33.925Z,59.23
2018-10-18T22:36:02.449Z,61.77
2018-10-18T22:38:30.974Z,61.30
2018-10-18T22:40:59.497Z,60.60
2018-10-18T22:43:28.360Z,61.27
2018-10-18T22:46:00.624Z,60.57
2018-10-18T22:48:30.657Z,63.67
2018-10-18T22:50:59.852Z,58.30
2018-10-18T22:53:29.040Z,59.83
2018-10-18T22:55:57.521Z,65.60
2018-10-18T22:58:26.103Z,64.37
2018-10-18T23:00:54.590Z,58.67
2018-10-18T23:03:23.161Z,64.60
2018-10-18T23:05:51.674Z,65.83
2018-10-18T23:08:20.200Z,64.40
2018-10-18T23:10:48.760Z,65.83
2018-10-18T23:13:17.274Z,66.70
2018-10-18T23:15:45.798Z,67.63
2018-10-18T23:18:14.393Z,61.00
2018-10-18T23:20:42.896Z,66.43
2018-10-18T23:23:11.668Z,67.07
2018-10-18T23:25:40.581Z,61.90
2018-10-18T23:28:09.148Z,70.50
2018-10-18T23:30:37.669Z,75.10
2018-10-18T23:33:06.277Z,74.10
2018-10-18T23:35:35.415Z,74.70
2018-10-18T23:38:03.942Z,76.93
2018-10-18T23:40:32.468Z,80.50
2018-10-18T23:43:01.000Z,84.03
2018-10-18T23:45:29.484Z,84.87
2018-10-18T23:47:58.093Z,85.37
2018-10-18T23:50:26.606Z,84.97
2018-10-18T23:52:55.139Z,88.70
2018-10-18T23:55:23.652Z,91.63
2018-10-18T23:57:52.162Z,88.80
